N0312CM SEQM-SEMT
Flight info
| Callsign | N0312CM |
|---|---|
| Flight time | 0h 50m |
| Altitude | 18000 |
| Route | QIT3 QIT W6 ORETA ORETA1 |
| Aircraft | B58T/L-SDFGRY/C |
Departure
| Time | 2026-04-26 00:50 |
|---|---|
| Airport | Mariscal Sucre International Airport (SEQM) |
Arrival
| Time | 2026-04-26 01:40 |
|---|---|
| Airport | Eloy Alfaro International Airport (SEMT) |
| Time | Latitude | Longitude | Altitude | Speed | Heading |
|---|---|---|---|---|---|
| 2026-04-26 00:45 | -0.13678 | -78.35664 | 7874 ft | 0 kts | 269° |
| 2026-04-26 00:47 | -0.13678 | -78.35665 | 7874 ft | 0 kts | 269° |
| 2026-04-26 00:47 | -0.13678 | -78.35667 | 7873 ft | 3 kts | 269° |
| 2026-04-26 00:48 | -0.13719 | -78.35687 | 7874 ft | 9 kts | 178° |
| 2026-04-26 00:48 | -0.13771 | -78.35675 | 7879 ft | 7 kts | 109° |
| 2026-04-26 00:48 | -0.13769 | -78.35636 | 7882 ft | 5 kts | 98° |
| 2026-04-26 00:48 | -0.13778 | -78.35606 | 7885 ft | 5 kts | 100° |
| 2026-04-26 00:49 | -0.13766 | -78.35560 | 7888 ft | 10 kts | 28° |
| 2026-04-26 00:49 | -0.13661 | -78.35561 | 7883 ft | 21 kts | 359° |
| 2026-04-26 00:49 | -0.13551 | -78.35485 | 7883 ft | 21 kts | 21° |
| 2026-04-26 00:49 | -0.13350 | -78.35412 | 7882 ft | 58 kts | 8° |
| 2026-04-26 00:50 | -0.12727 | -78.35430 | 7854 ft | 117 kts | 357° |
| 2026-04-26 00:50 | -0.11835 | -78.35467 | 8046 ft | 131 kts | 358° |
| 2026-04-26 00:50 | -0.10857 | -78.35477 | 8187 ft | 151 kts | 358° |
| 2026-04-26 00:50 | -0.09779 | -78.35564 | 8486 ft | 156 kts | 356° |
| 2026-04-26 00:51 | -0.08712 | -78.35626 | 8880 ft | 152 kts | 358° |
| 2026-04-26 00:51 | -0.07664 | -78.35673 | 9234 ft | 149 kts | 358° |
| 2026-04-26 00:51 | -0.06644 | -78.35714 | 9624 ft | 149 kts | 358° |
| 2026-04-26 00:51 | -0.05615 | -78.35758 | 10025 ft | 148 kts | 357° |
| 2026-04-26 00:52 | -0.04582 | -78.35799 | 10379 ft | 148 kts | 357° |
| 2026-04-26 00:52 | -0.03556 | -78.35840 | 10719 ft | 148 kts | 357° |
| 2026-04-26 00:52 | -0.02528 | -78.35881 | 11064 ft | 148 kts | 357° |
| 2026-04-26 00:52 | -0.01502 | -78.35922 | 11402 ft | 146 kts | 357° |
| 2026-04-26 00:53 | -0.00484 | -78.35963 | 11751 ft | 146 kts | 358° |
| 2026-04-26 00:53 | 0.00536 | -78.36001 | 12107 ft | 146 kts | 358° |
| 2026-04-26 00:53 | 0.01554 | -78.36041 | 12461 ft | 147 kts | 358° |
| 2026-04-26 00:53 | 0.02575 | -78.36086 | 12823 ft | 147 kts | 357° |
| 2026-04-26 00:54 | 0.03595 | -78.36132 | 13186 ft | 147 kts | 358° |
| 2026-04-26 00:54 | 0.04619 | -78.36174 | 13562 ft | 147 kts | 358° |
| 2026-04-26 00:54 | 0.05627 | -78.36323 | 13933 ft | 148 kts | 332° |
| 2026-04-26 00:54 | 0.06282 | -78.37068 | 14295 ft | 148 kts | 290° |
| 2026-04-26 00:55 | 0.06291 | -78.38072 | 14644 ft | 147 kts | 255° |
| 2026-04-26 00:55 | 0.06029 | -78.39060 | 14987 ft | 147 kts | 256° |
| 2026-04-26 00:55 | 0.05770 | -78.40050 | 15331 ft | 148 kts | 255° |
| 2026-04-26 00:55 | 0.05505 | -78.41039 | 15674 ft | 148 kts | 255° |
| 2026-04-26 00:56 | 0.05241 | -78.42030 | 16026 ft | 147 kts | 255° |
| 2026-04-26 00:56 | 0.04976 | -78.43022 | 16383 ft | 148 kts | 255° |
| 2026-04-26 00:56 | 0.04712 | -78.44016 | 16745 ft | 149 kts | 255° |
| 2026-04-26 00:56 | 0.04446 | -78.45019 | 17107 ft | 149 kts | 255° |
| 2026-04-26 00:57 | 0.04178 | -78.46024 | 17480 ft | 149 kts | 255° |
| 2026-04-26 00:57 | 0.03912 | -78.47026 | 17845 ft | 149 kts | 255° |
| 2026-04-26 00:57 | 0.03637 | -78.48063 | 18002 ft | 165 kts | 255° |
| 2026-04-26 00:57 | 0.03282 | -78.49220 | 18009 ft | 185 kts | 242° |
| 2026-04-26 00:58 | 0.02394 | -78.50195 | 18013 ft | 198 kts | 213° |
| 2026-04-26 00:58 | 0.01077 | -78.50659 | 18014 ft | 207 kts | 186° |
| 2026-04-26 00:58 | -0.00388 | -78.50795 | 18012 ft | 215 kts | 184° |
| 2026-04-26 00:58 | -0.01892 | -78.50966 | 18009 ft | 220 kts | 193° |
| 2026-04-26 00:59 | -0.03278 | -78.51584 | 18008 ft | 220 kts | 214° |
| 2026-04-26 00:59 | -0.04369 | -78.52647 | 18003 ft | 220 kts | 234° |
| 2026-04-26 00:59 | -0.05050 | -78.54002 | 18001 ft | 219 kts | 248° |
| 2026-04-26 00:59 | -0.05625 | -78.55400 | 18061 ft | 214 kts | 247° |
| 2026-04-26 01:00 | -0.06184 | -78.56738 | 18182 ft | 209 kts | 247° |
| 2026-04-26 01:00 | -0.06738 | -78.58062 | 18280 ft | 205 kts | 247° |
| 2026-04-26 01:00 | -0.07287 | -78.59378 | 18293 ft | 206 kts | 247° |
| 2026-04-26 01:00 | -0.07842 | -78.60711 | 18287 ft | 208 kts | 247° |
| 2026-04-26 01:01 | -0.08400 | -78.62049 | 18285 ft | 210 kts | 247° |
| 2026-04-26 01:01 | -0.08961 | -78.63400 | 18290 ft | 211 kts | 247° |
| 2026-04-26 01:01 | -0.09527 | -78.64758 | 18296 ft | 211 kts | 248° |
| 2026-04-26 01:01 | -0.10088 | -78.66109 | 18288 ft | 212 kts | 248° |
| 2026-04-26 01:02 | -0.10655 | -78.67470 | 18281 ft | 212 kts | 247° |
| 2026-04-26 01:02 | -0.11221 | -78.68828 | 18266 ft | 212 kts | 248° |
| 2026-04-26 01:02 | -0.11789 | -78.70192 | 18257 ft | 212 kts | 248° |
| 2026-04-26 01:02 | -0.12354 | -78.71553 | 18238 ft | 213 kts | 248° |
| 2026-04-26 01:03 | -0.12732 | -78.72459 | 18238 ft | 213 kts | 248° |
| 2026-04-26 01:03 | -0.13301 | -78.73824 | 18232 ft | 212 kts | 248° |
| 2026-04-26 01:03 | -0.13869 | -78.75186 | 18235 ft | 213 kts | 248° |
| 2026-04-26 01:03 | -0.14437 | -78.76550 | 18231 ft | 213 kts | 248° |
| 2026-04-26 01:04 | -0.15007 | -78.77918 | 18228 ft | 213 kts | 248° |
| 2026-04-26 01:04 | -0.15576 | -78.79286 | 18225 ft | 213 kts | 248° |
| 2026-04-26 01:04 | -0.16146 | -78.80655 | 18223 ft | 213 kts | 247° |
| 2026-04-26 01:04 | -0.16715 | -78.82017 | 18223 ft | 213 kts | 247° |
| 2026-04-26 01:05 | -0.17288 | -78.83388 | 18219 ft | 213 kts | 247° |
| 2026-04-26 01:05 | -0.17857 | -78.84756 | 18218 ft | 213 kts | 247° |
| 2026-04-26 01:05 | -0.18419 | -78.86109 | 18214 ft | 213 kts | 247° |
| 2026-04-26 01:05 | -0.18988 | -78.87478 | 18213 ft | 213 kts | 247° |
| 2026-04-26 01:06 | -0.19555 | -78.88841 | 18211 ft | 213 kts | 247° |
| 2026-04-26 01:06 | -0.20125 | -78.90209 | 18210 ft | 213 kts | 247° |
| 2026-04-26 01:06 | -0.20695 | -78.91577 | 18202 ft | 213 kts | 247° |
| 2026-04-26 01:06 | -0.21267 | -78.92951 | 18204 ft | 214 kts | 248° |
| 2026-04-26 01:07 | -0.21829 | -78.94318 | 18199 ft | 214 kts | 247° |
| 2026-04-26 01:07 | -0.22406 | -78.95695 | 18197 ft | 214 kts | 247° |
| 2026-04-26 01:07 | -0.22983 | -78.97066 | 18198 ft | 214 kts | 247° |
| 2026-04-26 01:07 | -0.23556 | -78.98440 | 18197 ft | 214 kts | 247° |
| 2026-04-26 01:08 | -0.24128 | -78.99819 | 18190 ft | 214 kts | 248° |
| 2026-04-26 01:08 | -0.24691 | -79.01176 | 18189 ft | 214 kts | 247° |
| 2026-04-26 01:08 | -0.25266 | -79.02553 | 18185 ft | 214 kts | 247° |
| 2026-04-26 01:08 | -0.25839 | -79.03928 | 18182 ft | 214 kts | 247° |
| 2026-04-26 01:09 | -0.26414 | -79.05311 | 18177 ft | 215 kts | 247° |
| 2026-04-26 01:09 | -0.26988 | -79.06689 | 18179 ft | 215 kts | 247° |
| 2026-04-26 01:09 | -0.27563 | -79.08065 | 18173 ft | 215 kts | 247° |
| 2026-04-26 01:09 | -0.28137 | -79.09444 | 18168 ft | 215 kts | 247° |
| 2026-04-26 01:10 | -0.28706 | -79.10815 | 18163 ft | 215 kts | 247° |
| 2026-04-26 01:10 | -0.29282 | -79.12197 | 18157 ft | 215 kts | 247° |
| 2026-04-26 01:10 | -0.29858 | -79.13579 | 18158 ft | 215 kts | 247° |
| 2026-04-26 01:10 | -0.30432 | -79.14958 | 18155 ft | 215 kts | 247° |
| 2026-04-26 01:11 | -0.31001 | -79.16323 | 18151 ft | 215 kts | 247° |
| 2026-04-26 01:11 | -0.31574 | -79.17699 | 18147 ft | 215 kts | 248° |
| 2026-04-26 01:11 | -0.32080 | -79.19103 | 18115 ft | 216 kts | 249° |
| 2026-04-26 01:11 | -0.32624 | -79.20514 | 18042 ft | 219 kts | 249° |
| 2026-04-26 01:12 | -0.33171 | -79.21944 | 17964 ft | 221 kts | 249° |
| 2026-04-26 01:12 | -0.33712 | -79.23387 | 17890 ft | 223 kts | 249° |
| 2026-04-26 01:12 | -0.34255 | -79.24842 | 17814 ft | 224 kts | 249° |
| 2026-04-26 01:12 | -0.34801 | -79.26298 | 17739 ft | 225 kts | 249° |
| 2026-04-26 01:13 | -0.35351 | -79.27765 | 17660 ft | 226 kts | 249° |
| 2026-04-26 01:13 | -0.35904 | -79.29235 | 17582 ft | 226 kts | 249° |
| 2026-04-26 01:13 | -0.36457 | -79.30708 | 17456 ft | 229 kts | 249° |
| 2026-04-26 01:13 | -0.37020 | -79.32208 | 17309 ft | 232 kts | 249° |
| 2026-04-26 01:14 | -0.37595 | -79.33723 | 17159 ft | 233 kts | 249° |
| 2026-04-26 01:14 | -0.38172 | -79.35244 | 17008 ft | 235 kts | 249° |
| 2026-04-26 01:14 | -0.38742 | -79.36784 | 16863 ft | 236 kts | 250° |
| 2026-04-26 01:14 | -0.39313 | -79.38322 | 16714 ft | 237 kts | 249° |
| 2026-04-26 01:15 | -0.39891 | -79.39865 | 16572 ft | 237 kts | 249° |
| 2026-04-26 01:15 | -0.40470 | -79.41408 | 16417 ft | 237 kts | 249° |
| 2026-04-26 01:15 | -0.41051 | -79.42952 | 16272 ft | 237 kts | 249° |
| 2026-04-26 01:15 | -0.41629 | -79.44495 | 16127 ft | 237 kts | 249° |
| 2026-04-26 01:16 | -0.42209 | -79.46039 | 15980 ft | 237 kts | 249° |
| 2026-04-26 01:16 | -0.42788 | -79.47583 | 15835 ft | 237 kts | 249° |
| 2026-04-26 01:16 | -0.43365 | -79.49118 | 15691 ft | 236 kts | 249° |
| 2026-04-26 01:16 | -0.43940 | -79.50652 | 15549 ft | 236 kts | 249° |
| 2026-04-26 01:17 | -0.44513 | -79.52181 | 15399 ft | 235 kts | 249° |
| 2026-04-26 01:17 | -0.45082 | -79.53697 | 15262 ft | 235 kts | 250° |
| 2026-04-26 01:17 | -0.45653 | -79.55221 | 15117 ft | 234 kts | 250° |
| 2026-04-26 01:17 | -0.46226 | -79.56748 | 14979 ft | 234 kts | 249° |
| 2026-04-26 01:18 | -0.46796 | -79.58267 | 14839 ft | 233 kts | 250° |
| 2026-04-26 01:18 | -0.47365 | -79.59787 | 14693 ft | 232 kts | 250° |
| 2026-04-26 01:18 | -0.47932 | -79.61295 | 14556 ft | 232 kts | 250° |
| 2026-04-26 01:18 | -0.48497 | -79.62803 | 14416 ft | 231 kts | 250° |
| 2026-04-26 01:19 | -0.49061 | -79.64307 | 14279 ft | 231 kts | 250° |
| 2026-04-26 01:19 | -0.49616 | -79.65787 | 14140 ft | 230 kts | 249° |
| 2026-04-26 01:19 | -0.50177 | -79.67281 | 14005 ft | 229 kts | 250° |
| 2026-04-26 01:19 | -0.50734 | -79.68766 | 13871 ft | 229 kts | 250° |
| 2026-04-26 01:20 | -0.51293 | -79.70257 | 13721 ft | 228 kts | 250° |
| 2026-04-26 01:20 | -0.51849 | -79.71740 | 13566 ft | 227 kts | 250° |
| 2026-04-26 01:20 | -0.52403 | -79.73217 | 13404 ft | 227 kts | 250° |
| 2026-04-26 01:20 | -0.52952 | -79.74682 | 13259 ft | 226 kts | 250° |
| 2026-04-26 01:21 | -0.53507 | -79.76163 | 13082 ft | 227 kts | 250° |
| 2026-04-26 01:21 | -0.54061 | -79.77638 | 12900 ft | 227 kts | 250° |
| 2026-04-26 01:21 | -0.54614 | -79.79112 | 12728 ft | 226 kts | 250° |
| 2026-04-26 01:21 | -0.55165 | -79.80584 | 12562 ft | 226 kts | 250° |
| 2026-04-26 01:22 | -0.55717 | -79.82053 | 12378 ft | 226 kts | 250° |
| 2026-04-26 01:22 | -0.56266 | -79.83520 | 12208 ft | 225 kts | 250° |
| 2026-04-26 01:22 | -0.56815 | -79.84982 | 12035 ft | 224 kts | 250° |
| 2026-04-26 01:22 | -0.57363 | -79.86442 | 11865 ft | 224 kts | 250° |
| 2026-04-26 01:23 | -0.57900 | -79.87876 | 11695 ft | 223 kts | 250° |
| 2026-04-26 01:23 | -0.58445 | -79.89329 | 11527 ft | 223 kts | 250° |
| 2026-04-26 01:23 | -0.58987 | -79.90778 | 11355 ft | 222 kts | 250° |
| 2026-04-26 01:23 | -0.59531 | -79.92225 | 11192 ft | 222 kts | 251° |
| 2026-04-26 01:24 | -0.60070 | -79.93664 | 11021 ft | 221 kts | 250° |
| 2026-04-26 01:24 | -0.60610 | -79.95103 | 10854 ft | 220 kts | 251° |
| 2026-04-26 01:24 | -0.61147 | -79.96534 | 10691 ft | 219 kts | 250° |
| 2026-04-26 01:24 | -0.61680 | -79.97956 | 10512 ft | 219 kts | 251° |
| 2026-04-26 01:25 | -0.62214 | -79.99382 | 10328 ft | 220 kts | 251° |
| 2026-04-26 01:25 | -0.62751 | -80.00814 | 10143 ft | 219 kts | 251° |
| 2026-04-26 01:25 | -0.63278 | -80.02219 | 9962 ft | 219 kts | 251° |
| 2026-04-26 01:25 | -0.63813 | -80.03646 | 9771 ft | 219 kts | 252° |
| 2026-04-26 01:26 | -0.64347 | -80.05071 | 9566 ft | 218 kts | 251° |
| 2026-04-26 01:26 | -0.64878 | -80.06489 | 9361 ft | 218 kts | 251° |
| 2026-04-26 01:26 | -0.65409 | -80.07903 | 9161 ft | 217 kts | 251° |
| 2026-04-26 01:26 | -0.65938 | -80.09313 | 8959 ft | 217 kts | 251° |
| 2026-04-26 01:27 | -0.66467 | -80.10723 | 8759 ft | 216 kts | 251° |
| 2026-04-26 01:27 | -0.66994 | -80.12130 | 8557 ft | 216 kts | 251° |
| 2026-04-26 01:27 | -0.67521 | -80.13534 | 8366 ft | 216 kts | 251° |
| 2026-04-26 01:27 | -0.68047 | -80.14935 | 8169 ft | 215 kts | 251° |
| 2026-04-26 01:28 | -0.68571 | -80.16335 | 7975 ft | 215 kts | 251° |
| 2026-04-26 01:28 | -0.69094 | -80.17732 | 7779 ft | 214 kts | 251° |
| 2026-04-26 01:28 | -0.69616 | -80.19126 | 7589 ft | 214 kts | 251° |
| 2026-04-26 01:28 | -0.70139 | -80.20519 | 7400 ft | 214 kts | 251° |
| 2026-04-26 01:29 | -0.70661 | -80.21910 | 7207 ft | 213 kts | 251° |
| 2026-04-26 01:29 | -0.71180 | -80.23294 | 7020 ft | 213 kts | 251° |
| 2026-04-26 01:29 | -0.71699 | -80.24678 | 6827 ft | 212 kts | 251° |
| 2026-04-26 01:29 | -0.72215 | -80.26057 | 6639 ft | 212 kts | 251° |
| 2026-04-26 01:30 | -0.72727 | -80.27422 | 6456 ft | 212 kts | 251° |
| 2026-04-26 01:30 | -0.73249 | -80.28816 | 6266 ft | 212 kts | 251° |
| 2026-04-26 01:30 | -0.73759 | -80.30174 | 6067 ft | 211 kts | 251° |
| 2026-04-26 01:30 | -0.74273 | -80.31545 | 5868 ft | 211 kts | 251° |
| 2026-04-26 01:31 | -0.74787 | -80.32917 | 5666 ft | 210 kts | 250° |
| 2026-04-26 01:31 | -0.75299 | -80.34283 | 5476 ft | 210 kts | 250° |
| 2026-04-26 01:31 | -0.75812 | -80.35651 | 5280 ft | 210 kts | 250° |
| 2026-04-26 01:31 | -0.76324 | -80.37017 | 5087 ft | 210 kts | 250° |
| 2026-04-26 01:32 | -0.76836 | -80.38384 | 4888 ft | 209 kts | 250° |
| 2026-04-26 01:32 | -0.77345 | -80.39741 | 4694 ft | 209 kts | 250° |
| 2026-04-26 01:32 | -0.77853 | -80.41099 | 4492 ft | 208 kts | 250° |
| 2026-04-26 01:32 | -0.78356 | -80.42436 | 4296 ft | 207 kts | 251° |
| 2026-04-26 01:33 | -0.78861 | -80.43783 | 4104 ft | 207 kts | 250° |
| 2026-04-26 01:33 | -0.79365 | -80.45130 | 3902 ft | 206 kts | 250° |
| 2026-04-26 01:33 | -0.79886 | -80.46464 | 3702 ft | 205 kts | 245° |
| 2026-04-26 01:33 | -0.80675 | -80.47647 | 3507 ft | 204 kts | 235° |
| 2026-04-26 01:34 | -0.81471 | -80.48797 | 3402 ft | 189 kts | 237° |
| 2026-04-26 01:34 | -0.82154 | -80.49804 | 3387 ft | 164 kts | 237° |
| 2026-04-26 01:34 | -0.82761 | -80.50689 | 3381 ft | 147 kts | 237° |
| 2026-04-26 01:34 | -0.83317 | -80.51501 | 3383 ft | 136 kts | 237° |
| 2026-04-26 01:35 | -0.83836 | -80.52260 | 3390 ft | 129 kts | 237° |
| 2026-04-26 01:35 | -0.84325 | -80.52974 | 3394 ft | 123 kts | 238° |
| 2026-04-26 01:35 | -0.84802 | -80.53673 | 3394 ft | 120 kts | 237° |
| 2026-04-26 01:35 | -0.85278 | -80.54368 | 3392 ft | 122 kts | 238° |
| 2026-04-26 01:36 | -0.85759 | -80.55074 | 3346 ft | 127 kts | 237° |
| 2026-04-26 01:36 | -0.86284 | -80.55844 | 3132 ft | 138 kts | 238° |
| 2026-04-26 01:36 | -0.86835 | -80.56652 | 2911 ft | 142 kts | 237° |
| 2026-04-26 01:37 | -0.87954 | -80.58285 | 2461 ft | 143 kts | 237° |
| 2026-04-26 01:37 | -0.88521 | -80.59114 | 2129 ft | 146 kts | 237° |
| 2026-04-26 01:37 | -0.89084 | -80.59921 | 2005 ft | 133 kts | 237° |
| 2026-04-26 01:37 | -0.89592 | -80.60646 | 1994 ft | 122 kts | 237° |
| 2026-04-26 01:38 | -0.90066 | -80.61325 | 1988 ft | 116 kts | 237° |
| 2026-04-26 01:38 | -0.90517 | -80.61962 | 1981 ft | 114 kts | 236° |
| 2026-04-26 01:38 | -0.90983 | -80.62612 | 1916 ft | 114 kts | 236° |
| 2026-04-26 01:38 | -0.91454 | -80.63264 | 1808 ft | 116 kts | 238° |
| 2026-04-26 01:39 | -0.91868 | -80.63922 | 1498 ft | 109 kts | 240° |
| 2026-04-26 01:39 | -0.92298 | -80.64561 | 1041 ft | 110 kts | 234° |
| 2026-04-26 01:39 | -0.92724 | -80.65176 | 701 ft | 105 kts | 236° |
| 2026-04-26 01:39 | -0.93119 | -80.65734 | 340 ft | 94 kts | 232° |
| 2026-04-26 01:40 | -0.93478 | -80.66250 | 137 ft | 89 kts | 230° |
| 2026-04-26 01:40 | -0.93819 | -80.66730 | 58 ft | 80 kts | 233° |
| 2026-04-26 01:40 | -0.94092 | -80.67130 | 53 ft | 57 kts | 236° |
| 2026-04-26 01:40 | -0.94290 | -80.67421 | 49 ft | 44 kts | 237° |
| 2026-04-26 01:41 | -0.94448 | -80.67650 | 41 ft | 37 kts | 235° |
| 2026-04-26 01:41 | -0.94583 | -80.67844 | 37 ft | 33 kts | 236° |
| 2026-04-26 01:41 | -0.94706 | -80.68021 | 38 ft | 19 kts | 234° |
| 2026-04-26 01:41 | -0.94744 | -80.67985 | 39 ft | 13 kts | 98° |
| 2026-04-26 01:42 | -0.94763 | -80.67887 | 40 ft | 16 kts | 101° |
| 2026-04-26 01:42 | -0.94807 | -80.67918 | 40 ft | 14 kts | 246° |
| 2026-04-26 01:42 | -0.94869 | -80.68011 | 39 ft | 18 kts | 234° |
| 2026-04-26 01:42 | -0.94947 | -80.68123 | 39 ft | 21 kts | 236° |
| 2026-04-26 01:43 | -0.95032 | -80.68247 | 39 ft | 23 kts | 236° |
| 2026-04-26 01:43 | -0.95126 | -80.68386 | 37 ft | 25 kts | 234° |
| 2026-04-26 01:43 | -0.95218 | -80.68516 | 37 ft | 16 kts | 233° |
| 2026-04-26 01:43 | -0.95262 | -80.68535 | 37 ft | 7 kts | 147° |
| 2026-04-26 01:44 | -0.95296 | -80.68503 | 37 ft | 4 kts | 58° |
| 2026-04-26 01:44 | -0.95296 | -80.68501 | 37 ft | 0 kts | 56° |